Progranichnoe, Russia
Current Conditions -  °F | °C
As of 10:00 AM on Wednesday 28 Jan 2015 (Local Time) from UHSS Reporting Station
Few Clouds Few Clouds  
Wind Chill: -4°   Ceiling: Unl
Heat Index: -4°   Visibility: 5mi
Dew Point: -8°   Wind: 0mph
Humidity: 85%   Direction: NA
Pressure: 29.74"   Gusts: NA
Location:  50.4°N, 143.77°E
Report Text: UHSS 272300Z 00000MPS 8000 FEW033 M20/M22 Q1007 NOSIG RMKQFE754/1005 01810355
Loading
Personal Weather Stations






























Interactive Weather Map New forecast layout! Learn more

10-Day Weather Forecast

Advertisements
Track Severe Weather on mobile